createdAt,value
2022-10-28T00:00:05.689Z,88.87
2022-10-28T00:05:34.100Z,88.89
2022-10-28T00:10:37.458Z,89.12
2022-10-28T00:15:40.470Z,89.42
2022-10-28T00:20:43.515Z,89.66
2022-10-28T00:25:46.471Z,89.82
2022-10-28T00:30:49.408Z,89.57
2022-10-28T00:35:52.375Z,89.57
2022-10-28T00:40:55.405Z,89.70
2022-10-28T00:45:58.694Z,89.77
2022-10-28T00:51:03.467Z,90.19
2022-10-28T00:56:08.868Z,90.24
2022-10-28T01:01:11.875Z,90.44
2022-10-28T01:06:15.579Z,90.43
2022-10-28T01:11:45.452Z,90.31
2022-10-28T01:17:24.911Z,90.26
2022-10-28T01:22:27.879Z,90.34
2022-10-28T01:28:11.370Z,90.76
2022-10-28T01:34:13.171Z,91.06
2022-10-28T01:39:47.490Z,90.91
2022-10-28T01:45:08.922Z,90.71
2022-10-28T01:50:44.403Z,90.25
2022-10-28T01:55:54.149Z,90.15
2022-10-28T02:01:01.012Z,90.01
2022-10-28T02:06:11.375Z,90.03
2022-10-28T02:11:55.487Z,89.85
2022-10-28T02:17:10.782Z,89.64
2022-10-28T02:22:41.024Z,89.39
2022-10-28T02:28:00.642Z,89.32
2022-10-28T02:33:10.799Z,89.42
2022-10-28T02:38:39.903Z,89.52
2022-10-28T02:43:46.026Z,89.65
2022-10-28T02:48:55.287Z,89.64
2022-10-28T02:54:09.749Z,89.61
2022-10-28T02:59:13.798Z,89.32
2022-10-28T03:04:16.832Z,89.14
2022-10-28T03:09:19.869Z,89.06
2022-10-28T03:14:22.947Z,89.07
2022-10-28T03:19:25.958Z,88.92
2022-10-28T03:24:28.953Z,88.76
2022-10-28T03:29:32.265Z,88.53
2022-10-28T03:34:35.268Z,88.50
2022-10-28T03:39:38.270Z,88.47
2022-10-28T03:44:41.296Z,88.70
2022-10-28T03:49:44.279Z,88.93
2022-10-28T03:54:47.285Z,89.09
2022-10-28T03:59:50.288Z,89.11
2022-10-28T04:04:53.606Z,88.96
2022-10-28T04:09:56.601Z,88.82
2022-10-28T04:14:59.647Z,88.56
2022-10-28T04:20:02.734Z,88.72
2022-10-28T04:25:06.556Z,88.77
2022-10-28T04:30:13.073Z,88.79
2022-10-28T04:35:16.333Z,88.81
2022-10-28T04:40:19.351Z,88.85
2022-10-28T04:45:22.439Z,88.82
2022-10-28T04:50:26.074Z,88.85
2022-10-28T04:55:29.265Z,88.89
2022-10-28T05:00:32.488Z,88.96
2022-10-28T05:05:37.630Z,89.08
2022-10-28T05:10:40.666Z,89.14
2022-10-28T05:15:44.149Z,88.93
2022-10-28T05:20:47.257Z,88.89
2022-10-28T05:25:52.004Z,88.92
2022-10-28T05:30:55.043Z,88.96
2022-10-28T05:36:00.111Z,89.10
2022-10-28T05:41:03.814Z,89.20
2022-10-28T05:46:06.780Z,89.11
2022-10-28T05:51:09.802Z,89.17
2022-10-28T05:56:12.793Z,89.38
2022-10-28T06:01:15.856Z,89.50
2022-10-28T06:06:18.897Z,89.54
2022-10-28T06:11:20.323Z,89.72
2022-10-28T06:16:23.311Z,89.72
2022-10-28T06:21:26.380Z,89.68
2022-10-28T06:26:29.390Z,89.86
2022-10-28T06:31:32.431Z,90.12
2022-10-28T06:36:35.714Z,90.26
2022-10-28T06:41:38.972Z,90.33
2022-10-28T06:46:43.562Z,90.08
2022-10-28T06:51:46.659Z,89.83
2022-10-28T06:56:49.679Z,89.90
2022-10-28T07:01:52.903Z,89.67
2022-10-28T07:06:59.371Z,89.83
2022-10-28T07:12:05.049Z,89.82
2022-10-28T07:17:08.869Z,89.57
2022-10-28T07:22:12.378Z,89.56
2022-10-28T07:27:15.602Z,89.32
2022-10-28T07:32:18.726Z,89.29
2022-10-28T07:37:22.030Z,89.46
2022-10-28T07:42:25.139Z,89.38
2022-10-28T07:47:28.481Z,89.40
2022-10-28T07:52:31.951Z,88.93
2022-10-28T07:57:36.003Z,88.94
2022-10-28T08:02:39.861Z,89.35
2022-10-28T08:07:42.943Z,89.66
2022-10-28T08:12:46.758Z,89.71
2022-10-28T08:17:54.217Z,89.96
2022-10-28T08:23:01.771Z,89.93
2022-10-28T08:28:07.188Z,90.01
2022-10-28T08:33:10.477Z,89.79
2022-10-28T08:38:13.484Z,90.10
2022-10-28T08:43:57.115Z,89.87
2022-10-28T08:49:14.458Z,89.75
2022-10-28T08:54:50.676Z,89.68
2022-10-28T08:59:55.249Z,89.38
2022-10-28T09:05:23.056Z,89.32
2022-10-28T09:10:43.096Z,88.65
2022-10-28T09:16:24.702Z,87.86
2022-10-28T09:21:45.644Z,87.25
2022-10-28T09:27:17.307Z,86.54
2022-10-28T09:32:30.010Z,85.61
2022-10-28T09:37:41.540Z,84.92
2022-10-28T09:43:28.065Z,85.04
2022-10-28T09:48:55.967Z,84.00
2022-10-28T09:54:01.440Z,83.82
2022-10-28T09:59:05.540Z,83.50
2022-10-28T10:04:31.309Z,82.91
2022-10-28T10:09:37.405Z,82.86
2022-10-28T10:14:49.190Z,82.82
2022-10-28T10:20:15.206Z,82.51
2022-10-28T10:25:18.118Z,82.24
2022-10-28T10:30:56.810Z,82.20
2022-10-28T10:36:10.744Z,81.67
2022-10-28T10:41:36.939Z,81.04
2022-10-28T10:46:39.877Z,80.71
2022-10-28T10:51:59.835Z,80.31
2022-10-28T10:57:20.788Z,79.83
2022-10-28T11:02:31.685Z,79.97
2022-10-28T11:07:37.515Z,79.58
2022-10-28T11:12:54.417Z,79.21
2022-10-28T11:18:21.664Z,78.81
2022-10-28T11:23:33.946Z,78.68
2022-10-28T11:28:59.705Z,78.46
2022-10-28T11:35:01.076Z,77.29
2022-10-28T11:40:32.549Z,76.32
2022-10-28T11:45:51.315Z,75.46
2022-10-28T11:51:28.528Z,74.98
2022-10-28T11:56:43.358Z,75.29
2022-10-28T12:02:20.381Z,75.08
2022-10-28T12:07:29.368Z,74.22
2022-10-28T12:12:47.197Z,74.40
2022-10-28T12:17:58.402Z,75.12
2022-10-28T12:23:23.762Z,76.14
2022-10-28T12:28:58.999Z,76.83
2022-10-28T12:34:10.466Z,77.71
2022-10-28T12:39:44.339Z,78.65
2022-10-28T12:44:52.957Z,79.00
2022-10-28T12:50:28.218Z,79.18
2022-10-28T12:56:00.964Z,79.36
2022-10-28T13:01:21.345Z,79.56
2022-10-28T13:07:06.010Z,79.60
2022-10-28T13:12:26.962Z,79.72
2022-10-28T13:18:28.098Z,79.88
2022-10-28T13:23:58.240Z,79.94
2022-10-28T13:29:07.360Z,79.88
2022-10-28T13:34:15.113Z,79.84
2022-10-28T13:39:31.828Z,79.78
2022-10-28T13:44:58.875Z,79.74
2022-10-28T13:50:34.424Z,79.65
2022-10-28T13:55:40.943Z,79.78
2022-10-28T14:00:46.746Z,79.68
2022-10-28T14:06:02.646Z,79.62
2022-10-28T14:11:22.416Z,79.72
2022-10-28T14:16:34.343Z,79.67
2022-10-28T14:22:07.179Z,79.47
2022-10-28T14:27:43.922Z,79.64
2022-10-28T14:32:50.001Z,79.65
2022-10-28T14:38:10.118Z,79.82
2022-10-28T14:43:46.413Z,79.88
2022-10-28T14:49:24.315Z,80.19
2022-10-28T14:54:39.813Z,80.53
2022-10-28T14:59:45.706Z,80.70
2022-10-28T15:05:00.773Z,80.88
2022-10-28T15:10:38.276Z,81.15
2022-10-28T15:16:03.804Z,81.51
2022-10-28T15:21:16.785Z,81.74
2022-10-28T15:26:19.852Z,81.95
2022-10-28T15:31:23.012Z,82.11
2022-10-28T15:36:49.474Z,82.14
2022-10-28T15:41:54.547Z,82.36
2022-10-28T15:47:00.321Z,82.69
2022-10-28T15:52:19.059Z,82.95
2022-10-28T15:57:30.164Z,83.07
2022-10-28T16:02:41.366Z,83.33
2022-10-28T16:07:45.935Z,83.60
2022-10-28T16:13:10.603Z,83.76
2022-10-28T16:18:42.332Z,83.75
2022-10-28T16:23:49.585Z,83.84
2022-10-28T16:28:53.615Z,83.86
2022-10-28T16:33:59.938Z,83.96
2022-10-28T16:39:03.070Z,84.35
2022-10-28T16:44:10.156Z,84.45
2022-10-28T16:49:13.378Z,84.51
2022-10-28T16:54:16.353Z,84.51
2022-10-28T16:59:19.370Z,84.64
2022-10-28T17:04:22.571Z,84.79
2022-10-28T17:09:25.571Z,85.00
2022-10-28T17:14:28.579Z,84.99
2022-10-28T17:19:31.685Z,84.86
2022-10-28T17:24:35.202Z,84.89
2022-10-28T17:29:39.031Z,84.85
2022-10-28T17:34:42.642Z,84.88
2022-10-28T17:39:45.805Z,84.88
2022-10-28T17:45:07.794Z,85.11
2022-10-28T17:50:10.905Z,85.21
2022-10-28T17:55:13.910Z,85.25
2022-10-28T18:00:34.421Z,85.36
2022-10-28T18:05:56.674Z,85.25
2022-10-28T18:11:00.399Z,85.32
2022-10-28T18:16:05.762Z,85.36
2022-10-28T18:21:11.725Z,85.38
2022-10-28T18:26:35.946Z,85.53
2022-10-28T18:31:42.297Z,85.44
2022-10-28T18:36:45.942Z,85.92
2022-10-28T18:41:51.575Z,86.43
2022-10-28T18:46:54.908Z,86.73
2022-10-28T18:51:59.762Z,86.80
2022-10-28T18:57:20.272Z,86.64
2022-10-28T19:02:23.770Z,86.61
2022-10-28T19:07:45.219Z,86.52
2022-10-28T19:12:52.778Z,86.62
2022-10-28T19:17:56.415Z,86.64
2022-10-28T19:23:18.807Z,86.42
2022-10-28T19:28:23.053Z,86.37
2022-10-28T19:33:28.232Z,86.41
2022-10-28T19:38:34.223Z,86.52
2022-10-28T19:43:38.093Z,86.69
2022-10-28T19:48:45.518Z,86.81
2022-10-28T19:53:57.946Z,86.82
2022-10-28T19:59:04.781Z,86.64
2022-10-28T20:04:10.257Z,86.54
2022-10-28T20:09:14.511Z,86.58
2022-10-28T20:14:17.828Z,86.75
2022-10-28T20:19:38.749Z,86.74
2022-10-28T20:24:41.883Z,86.64
2022-10-28T20:29:44.859Z,86.68
2022-10-28T20:34:47.996Z,86.54
2022-10-28T20:40:10.322Z,86.64
2022-10-28T20:45:14.147Z,86.63
2022-10-28T20:50:17.658Z,86.62
2022-10-28T20:55:20.762Z,86.60
2022-10-28T21:00:24.111Z,86.75
2022-10-28T21:05:27.190Z,86.74
2022-10-28T21:10:30.289Z,86.86
2022-10-28T21:15:56.389Z,87.08
2022-10-28T21:21:21.224Z,87.19
2022-10-28T21:26:41.578Z,87.04
2022-10-28T21:31:44.673Z,86.94
2022-10-28T21:37:05.178Z,87.04
2022-10-28T21:42:25.847Z,87.20
2022-10-28T21:47:29.116Z,87.12
2022-10-28T21:52:32.221Z,87.29
2022-10-28T21:57:35.320Z,87.28
2022-10-28T22:02:38.530Z,87.24
2022-10-28T22:07:41.637Z,87.22
2022-10-28T22:12:44.757Z,87.35
2022-10-28T22:17:48.358Z,87.47
2022-10-28T22:22:51.465Z,87.56
2022-10-28T22:27:54.571Z,87.36
2022-10-28T22:32:59.952Z,87.46
2022-10-28T22:38:03.035Z,87.46
2022-10-28T22:43:06.278Z,87.69
2022-10-28T22:48:28.316Z,87.64
2022-10-28T22:53:31.400Z,87.63
2022-10-28T22:58:35.029Z,87.68
2022-10-28T23:03:44.513Z,87.57
2022-10-28T23:09:05.098Z,87.40
2022-10-28T23:14:08.414Z,87.60
2022-10-28T23:19:29.231Z,87.66
2022-10-28T23:24:32.329Z,87.60
2022-10-28T23:29:53.661Z,87.47
2022-10-28T23:34:56.769Z,87.68
2022-10-28T23:39:59.917Z,87.64
2022-10-28T23:45:03.287Z,87.58
2022-10-28T23:50:06.633Z,87.53
2022-10-28T23:55:10.420Z,87.54
